Theologos P . — SZNB — position and weather

sailwx.info

Track history (hours):
 
Tides and Currents Weather Stations Pressure Air Temp Water Temp Dewpoint Dewpoint Depression Visibility Wind Speed Wind Dir Waves Ship Positions

Theologos P .

Last reported at 2017-Jul-21 05:16 UTC. Time now 2017-Jul-21 06:33 UTC.
Position N 37°54' E 024°18'.

Length 118 m; draft 5 m.

Type: Passenger vessel. MMSI: 240521000.

Date/timePositionNaut miles runAvg speedWind from/ knotsBaromVisibWave heightAir tempDewpointWater temp
2017-Jul-21 05:16N 37°54' E 024°18'15 1.4
2017-Jul-20 18:28N 38°01' E 024°01'817.4
2017-Jul-20 18:00N 37°59' E 024°10'3514.9
2017-Jul-20 15:39N 37°45' E 024°51'1018.9
2017-Jul-20 15:06N 37°37' E 025°00'217.8
2017-Jul-20 15:00N 37°36' E 025°02'1212.0
2017-Jul-20 14:01N 37°29' E 025°14'4 8.9
2017-Jul-20 13:30N 37°28' E 025°19'713.2
2017-Jul-20 13:00N 37°21' E 025°18'918.6
2017-Jul-20 12:31N 37°12' E 025°20'612.4
2017-Jul-20 12:00N 37°06' E 025°22'714.9
2017-Jul-20 11:30N 37°14' E 025°20'1019.7
2017-Jul-20 11:00N 37°23' E 025°17'5 9.5
2017-Jul-20 10:30N 37°28' E 025°20'816.7
2017-Jul-20 10:00N 37°31' E 025°10'4 7.9
2017-Jul-20 09:30N 37°33' E 025°06'1419.5
2017-Jul-20 08:49N 37°43' E 024°54'3912.0
2017-Jul-20 05:34N 37°60' E 024°09'119.3
2017-Jul-20 05:30N 37°60' E 024°08'6 0.5
2017-Jul-19 18:01N 38°01' E 024°01'111.5
2017-Jul-19 17:57N 38°01' E 024°02'918.9
2017-Jul-19 17:30N 37°58' E 024°12'3314.6
2017-Jul-19 15:12N 37°45' E 024°51'1018.8
2017-Jul-19 14:39N 37°38' E 025°00'318.3
2017-Jul-19 14:31N 37°36' E 025°03'612.7
2017-Jul-19 14:00N 37°32' E 025°09'713.9
2017-Jul-19 13:30N 37°28' E 025°17'2 3.1
2017-Jul-19 13:00N 37°27' E 025°18'917.4
2017-Jul-19 12:31N 37°19' E 025°18'918.0
2017-Jul-19 12:01N 37°10' E 025°21'4 7.5
2017-Jul-19 11:30N 37°06' E 025°22'4 7.4
2017-Jul-19 11:01N 37°10' E 025°20'1019.9
2017-Jul-19 10:31N 37°20' E 025°18'816.6
2017-Jul-19 10:00N 37°28' E 025°20'4 8.4
2017-Jul-19 09:30N 37°29' E 025°15'510.4
2017-Jul-19 09:01N 37°32' E 025°09'918.0
2017-Jul-19 08:30N 37°38' E 025°00'4215.0
2017-Jul-19 05:41N 37°58' E 024°14'319.2
2017-Jul-19 05:30N 37°59' E 024°10'7 0.6
2017-Jul-18 18:13N 38°01' E 024°01'313.4
2017-Jul-18 18:00N 38°00' E 024°04'1018.8
2017-Jul-18 17:30N 37°57' E 024°16'3014.4
2017-Jul-18 15:24N 37°45' E 024°51'919.0
2017-Jul-18 14:54N 37°38' E 024°59'1112.2
2017-Jul-18 14:00N 37°31' E 025°10'816.7
2017-Jul-18 13:30N 37°28' E 025°19'2 4.6
2017-Jul-18 13:00N 37°26' E 025°17'917.5
2017-Jul-18 12:30N 37°17' E 025°18'918.1
2017-Jul-18 12:00N 37°09' E 025°21'2 4.2
2017-Jul-18 11:30N 37°07' E 025°21'1019.8
2017-Jul-18 11:00N 37°16' E 025°19'1020.1
2017-Jul-18 10:30N 37°26' E 025°17'2 4.1
2017-Jul-18 10:00N 37°28' E 025°18'815.6
2017-Jul-18 09:30N 37°32' E 025°09'510.3
2017-Jul-18 09:00N 37°35' E 025°04'1219.5
2017-Jul-18 08:25N 37°43' E 024°53'4013.4
2017-Jul-18 05:27N 37°60' E 024°08'6 0.5
2017-Jul-17 17:59N 38°01' E 024°01'917.4
2017-Jul-17 17:29N 37°59' E 024°11'3 0.9
2017-Jul-17 13:54N 37°60' E 024°08'6 1.2
2017-Jul-17 09:17N 38°01' E 024°01'414.4
2017-Jul-17 09:00N 37°60' E 024°06'1018.8
2017-Jul-17 08:27N 37°57' E 024°18'2913.9
2017-Jul-17 06:24N 37°45' E 024°51'919.3
2017-Jul-17 05:55N 37°38' E 024°59'718.2
2017-Jul-17 05:30N 37°33' E 025°06'4 8.7
2017-Jul-17 05:00N 37°31' E 025°11'815.6
2017-Jul-17 04:30N 37°28' E 025°20'0 0.0
2017-Jul-17 04:00N 37°28' E 025°20'0 0.0
2017-Jul-17 03:30N 37°28' E 025°20'0 0.0
2017-Jul-17 03:00N 37°28' E 025°20'0 0.0
2017-Jul-17 02:30N 37°28' E 025°20'0 0.0
2017-Jul-17 02:00N 37°28' E 025°20'0 0.0
2017-Jul-17 01:30N 37°28' E 025°20'0 0.0
2017-Jul-17 01:00N 37°28' E 025°20'0 0.0
2017-Jul-17 00:30N 37°28' E 025°20'0 0.0
2017-Jul-17 00:00N 37°28' E 025°20'0 0.0
2017-Jul-16 23:30N 37°28' E 025°20'0 0.2
2017-Jul-16 23:00N 37°28' E 025°20'816.0
2017-Jul-16 22:31N 37°31' E 025°11'4 7.6
2017-Jul-16 22:01N 37°33' E 025°06'1019.7
2017-Jul-16 21:29N 37°39' E 024°56'4418.3
2017-Jul-16 19:06N 37°59' E 024°07'219.0
2017-Jul-16 19:00N 38°00' E 024°05'3 4.4
2017-Jul-16 18:13N 38°01' E 024°01'312.5
2017-Jul-16 18:01N 38°01' E 024°04'1119.1
2017-Jul-16 17:27N 37°57' E 024°17'3013.6
2017-Jul-16 15:17N 37°45' E 024°51'619.5
2017-Jul-16 15:00N 37°41' E 024°56'918.4
2017-Jul-16 14:31N 37°35' E 025°04'5 9.8
2017-Jul-16 14:00N 37°32' E 025°09'611.6
2017-Jul-16 13:30N 37°29' E 025°15'4 7.2
2017-Jul-16 13:00N 37°28' E 025°20'0 0.0
2017-Jul-16 12:30N 37°28' E 025°20'0 0.0
2017-Jul-16 12:00N 37°28' E 025°20'0 0.0
2017-Jul-16 11:30N 37°28' E 025°20'0 0.0
2017-Jul-16 11:00N 37°28' E 025°20'0 0.0
2017-Jul-16 10:30N 37°28' E 025°20'0 0.0
2017-Jul-16 10:00N 37°28' E 025°20'611.7
2017-Jul-16 09:30N 37°30' E 025°13'4 7.2
2017-Jul-16 09:00N 37°32' E 025°09'917.8
2017-Jul-16 08:30N 37°37' E 025°00'1019.3
2017-Jul-16 08:00N 37°45' E 024°52'3714.8
2017-Jul-16 05:31N 37°59' E 024°09'118.8
2017-Jul-16 05:29N 37°59' E 024°08'6 0.5
2017-Jul-15 18:08N 38°01' E 024°01'214.1
2017-Jul-15 18:00N 38°01' E 024°03'1119.4
2017-Jul-15 17:26N 37°57' E 024°16'3014.0
2017-Jul-15 15:19N 37°45' E 024°51'619.7
2017-Jul-15 15:01N 37°40' E 024°56'1414.2
2017-Jul-15 14:00N 37°31' E 025°10'917.1
2017-Jul-15 13:30N 37°28' E 025°19'3 6.6
2017-Jul-15 13:01N 37°25' E 025°17'917.9
2017-Jul-15 12:31N 37°16' E 025°18'918.8
2017-Jul-15 12:01N 37°07' E 025°22'1 1.0
2017-Jul-15 11:31N 37°06' E 025°21'1019.4
2017-Jul-15 11:00N 37°16' E 025°19'1019.6
2017-Jul-15 10:30N 37°26' E 025°17'3 5.2
2017-Jul-15 10:00N 37°28' E 025°17'714.8
2017-Jul-15 09:30N 37°32' E 025°09'5 9.0
2017-Jul-15 09:01N 37°34' E 025°04'1019.5
2017-Jul-15 08:31N 37°41' E 024°56'4114.4
2017-Jul-15 05:40N 37°59' E 024°09'318.6
2017-Jul-15 05:30N 38°00' E 024°06'4 0.7
2017-Jul-15 00:03N 38°01' E 024°01'1 7.7
2017-Jul-14 23:56N 38°01' E 024°02'819.0
2017-Jul-14 23:30N 37°58' E 024°11'3319.0
2017-Jul-14 21:45N 37°42' E 024°48'519.6
2017-Jul-14 21:30N 37°39' E 024°53'1019.1
2017-Jul-14 21:00N 37°33' E 025°03'1019.4
2017-Jul-14 20:30N 37°29' E 025°14'5 9.5
2017-Jul-14 20:00N 37°28' E 025°19'2 4.4
2017-Jul-14 19:31N 37°29' E 025°17'713.9
2017-Jul-14 19:00N 37°32' E 025°09'611.9
2017-Jul-14 18:30N 37°35' E 025°03'1019.1
2017-Jul-14 17:59N 37°42' E 024°54'4013.2
2017-Jul-14 14:57N 37°60' E 024°08'6 3.8
2017-Jul-14 13:19N 38°01' E 024°01'718.4
2017-Jul-14 12:58N 37°58' E 024°08'1019.2
2017-Jul-14 12:25N 37°54' E 024°20'2518.7
2017-Jul-14 11:05N 37°41' E 024°48'119.1
2017-Jul-14 11:01N 37°41' E 024°49'1019.2
2017-Jul-14 10:30N 37°36' E 024°60'816.7
2017-Jul-14 10:00N 37°32' E 025°09'611.2
2017-Jul-14 09:30N 37°29' E 025°15'4 7.6
2017-Jul-14 09:01N 37°28' E 025°20'0 0.2
2017-Jul-14 08:31N 37°28' E 025°20'917.6
2017-Jul-14 08:00N 37°32' E 025°10'3 6.6
2017-Jul-14 07:30N 37°33' E 025°06'1019.2
2017-Jul-14 07:00N 37°38' E 024°55'4619.2
2017-Jul-14 04:35N 38°00' E 024°04'3 0.2
2017-Jul-13 18:02N 38°01' E 024°01'0 8.2
2017-Jul-13 18:00N 38°01' E 024°01'1119.0
2017-Jul-13 17:26N 37°58' E 024°14'3214.6
2017-Jul-13 15:16N 37°45' E 024°51'519.5
2017-Jul-13 15:00N 37°41' E 024°55'1019.3
2017-Jul-13 14:30N 37°35' E 025°04'5 9.8
2017-Jul-13 14:00N 37°32' E 025°09'815.3
2017-Jul-13 13:30N 37°28' E 025°18'1 1.8
2017-Jul-13 13:01N 37°28' E 025°18'918.1
2017-Jul-13 12:30N 37°19' E 025°18'1019.5
2017-Jul-13 12:00N 37°09' E 025°21'3 6.1
2017-Jul-13 11:31N 37°06' E 025°22'3 6.6
2017-Jul-13 11:01N 37°09' E 025°21'1019.8
2017-Jul-13 10:31N 37°19' E 025°19'917.4
2017-Jul-13 10:00N 37°28' E 025°20'3 6.2
2017-Jul-13 09:31N 37°29' E 025°16'612.5
2017-Jul-13 09:00N 37°32' E 025°09'815.4
2017-Jul-13 08:30N 37°36' E 025°01'1019.5
2017-Jul-13 08:00N 37°44' E 024°53'3915.7
2017-Jul-13 05:31N 37°60' E 024°08'019.5
2017-Jul-13 05:30N 37°60' E 024°07'5 0.5
2017-Jul-12 17:58N 38°01' E 024°01'4314.6
2017-Jul-12 15:03N 37°45' E 024°51'119.6
2017-Jul-12 15:00N 37°44' E 024°51'1818.5
2017-Jul-12 14:00N 37°32' E 025°09'511.0
2017-Jul-12 13:30N 37°29' E 025°15'4 7.6
2017-Jul-12 13:00N 37°28' E 025°19'816.1
2017-Jul-12 12:30N 37°20' E 025°18'1019.9
2017-Jul-12 12:00N 37°10' E 025°21'4 8.0
2017-Jul-12 11:31N 37°06' E 025°22'4 7.4
2017-Jul-12 11:01N 37°10' E 025°21'1019.4
2017-Jul-12 10:31N 37°19' E 025°18'816.8
2017-Jul-12 10:00N 37°28' E 025°19'0 0.7
2017-Jul-12 09:30N 37°28' E 025°19'917.6
2017-Jul-12 09:00N 37°32' E 025°09'612.1
2017-Jul-12 08:30N 37°35' E 025°03'1019.6
2017-Jul-12 08:00N 37°43' E 024°54'4116.2
2017-Jul-12 05:28N 37°60' E 024°07'5 0.5
2017-Jul-11 18:24N 38°01' E 024°01'717.7
2017-Jul-11 18:00N 37°59' E 024°09'3514.2
2017-Jul-11 15:29N 37°45' E 024°51'919.5
2017-Jul-11 15:00N 37°38' E 024°59'918.5
2017-Jul-11 14:30N 37°32' E 025°08'4 8.9
2017-Jul-11 14:00N 37°30' E 025°13'611.8
2017-Jul-11 13:30N 37°28' E 025°20'2 4.1
2017-Jul-11 13:00N 37°27' E 025°17'918.6
2017-Jul-11 12:30N 37°17' E 025°19'918.8
2017-Jul-11 12:00N 37°08' E 025°21'2 3.8
2017-Jul-11 11:31N 37°06' E 025°22'816.5
2017-Jul-11 11:00N 37°14' E 025°20'1019.8
2017-Jul-11 10:31N 37°24' E 025°17'4 8.2
2017-Jul-11 10:00N 37°28' E 025°19'816.9
2017-Jul-11 09:30N 37°32' E 025°09'5 9.2
2017-Jul-11 09:00N 37°34' E 025°04'1019.6
2017-Jul-11 08:29N 37°42' E 024°55'4113.8
2017-Jul-11 05:30N 37°60' E 024°08'  
Track history (hours):
 
Tides and Currents Weather Stations Pressure Air Temp Water Temp Dewpoint Dewpoint Depression Visibility Wind Speed Wind Dir Waves Ship Positions

Theologos P .

Last reported at 2017-Jul-21 05:16 UTC. Time now 2017-Jul-21 06:33 UTC.
Position N 37°54' E 024°18'.

Length 118 m; draft 5 m.

Type: Passenger vessel. MMSI: 240521000.

Date/timePositionNaut miles runAvg speedWind from/ knotsBaromVisibWave heightAir tempDewpointWater temp
2017-Jul-21 05:16N 37°54' E 024°18'15 1.4
2017-Jul-20 18:28N 38°01' E 024°01'817.4
2017-Jul-20 18:00N 37°59' E 024°10'3514.9
2017-Jul-20 15:39N 37°45' E 024°51'1018.9
2017-Jul-20 15:06N 37°37' E 025°00'217.8
2017-Jul-20 15:00N 37°36' E 025°02'1212.0
2017-Jul-20 14:01N 37°29' E 025°14'4 8.9
2017-Jul-20 13:30N 37°28' E 025°19'713.2
2017-Jul-20 13:00N 37°21' E 025°18'918.6
2017-Jul-20 12:31N 37°12' E 025°20'612.4
2017-Jul-20 12:00N 37°06' E 025°22'714.9
2017-Jul-20 11:30N 37°14' E 025°20'1019.7
2017-Jul-20 11:00N 37°23' E 025°17'5 9.5
2017-Jul-20 10:30N 37°28' E 025°20'816.7
2017-Jul-20 10:00N 37°31' E 025°10'4 7.9
2017-Jul-20 09:30N 37°33' E 025°06'1419.5
2017-Jul-20 08:49N 37°43' E 024°54'3912.0
2017-Jul-20 05:34N 37°60' E 024°09'119.3
2017-Jul-20 05:30N 37°60' E 024°08'6 0.5
2017-Jul-19 18:01N 38°01' E 024°01'111.5
2017-Jul-19 17:57N 38°01' E 024°02'918.9
2017-Jul-19 17:30N 37°58' E 024°12'3314.6
2017-Jul-19 15:12N 37°45' E 024°51'1018.8
2017-Jul-19 14:39N 37°38' E 025°00'318.3
2017-Jul-19 14:31N 37°36' E 025°03'612.7
2017-Jul-19 14:00N 37°32' E 025°09'713.9
2017-Jul-19 13:30N 37°28' E 025°17'2 3.1
2017-Jul-19 13:00N 37°27' E 025°18'917.4
2017-Jul-19 12:31N 37°19' E 025°18'918.0
2017-Jul-19 12:01N 37°10' E 025°21'4 7.5
2017-Jul-19 11:30N 37°06' E 025°22'4 7.4
2017-Jul-19 11:01N 37°10' E 025°20'1019.9
2017-Jul-19 10:31N 37°20' E 025°18'816.6
2017-Jul-19 10:00N 37°28' E 025°20'4 8.4
2017-Jul-19 09:30N 37°29' E 025°15'510.4
2017-Jul-19 09:01N 37°32' E 025°09'918.0
2017-Jul-19 08:30N 37°38' E 025°00'4215.0
2017-Jul-19 05:41N 37°58' E 024°14'319.2
2017-Jul-19 05:30N 37°59' E 024°10'7 0.6
2017-Jul-18 18:13N 38°01' E 024°01'313.4
2017-Jul-18 18:00N 38°00' E 024°04'1018.8
2017-Jul-18 17:30N 37°57' E 024°16'3014.4
2017-Jul-18 15:24N 37°45' E 024°51'919.0
2017-Jul-18 14:54N 37°38' E 024°59'1112.2
2017-Jul-18 14:00N 37°31' E 025°10'816.7
2017-Jul-18 13:30N 37°28' E 025°19'2 4.6
2017-Jul-18 13:00N 37°26' E 025°17'917.5
2017-Jul-18 12:30N 37°17' E 025°18'918.1
2017-Jul-18 12:00N 37°09' E 025°21'2 4.2
2017-Jul-18 11:30N 37°07' E 025°21'1019.8
2017-Jul-18 11:00N 37°16' E 025°19'1020.1
2017-Jul-18 10:30N 37°26' E 025°17'2 4.1
2017-Jul-18 10:00N 37°28' E 025°18'815.6
2017-Jul-18 09:30N 37°32' E 025°09'510.3
2017-Jul-18 09:00N 37°35' E 025°04'1219.5
2017-Jul-18 08:25N 37°43' E 024°53'4013.4
2017-Jul-18 05:27N 37°60' E 024°08'6 0.5
2017-Jul-17 17:59N 38°01' E 024°01'917.4
2017-Jul-17 17:29N 37°59' E 024°11'3 0.9
2017-Jul-17 13:54N 37°60' E 024°08'6 1.2
2017-Jul-17 09:17N 38°01' E 024°01'414.4
2017-Jul-17 09:00N 37°60' E 024°06'1018.8
2017-Jul-17 08:27N 37°57' E 024°18'2913.9
2017-Jul-17 06:24N 37°45' E 024°51'919.3
2017-Jul-17 05:55N 37°38' E 024°59'718.2
2017-Jul-17 05:30N 37°33' E 025°06'4 8.7
2017-Jul-17 05:00N 37°31' E 025°11'815.6
2017-Jul-17 04:30N 37°28' E 025°20'0 0.0
2017-Jul-17 04:00N 37°28' E 025°20'0 0.0
2017-Jul-17 03:30N 37°28' E 025°20'0 0.0
2017-Jul-17 03:00N 37°28' E 025°20'0 0.0
2017-Jul-17 02:30N 37°28' E 025°20'0 0.0
2017-Jul-17 02:00N 37°28' E 025°20'0 0.0
2017-Jul-17 01:30N 37°28' E 025°20'0 0.0
2017-Jul-17 01:00N 37°28' E 025°20'0 0.0
2017-Jul-17 00:30N 37°28' E 025°20'0 0.0
2017-Jul-17 00:00N 37°28' E 025°20'0 0.0
2017-Jul-16 23:30N 37°28' E 025°20'0 0.2
2017-Jul-16 23:00N 37°28' E 025°20'816.0
2017-Jul-16 22:31N 37°31' E 025°11'4 7.6
2017-Jul-16 22:01N 37°33' E 025°06'1019.7
2017-Jul-16 21:29N 37°39' E 024°56'4418.3
2017-Jul-16 19:06N 37°59' E 024°07'219.0
2017-Jul-16 19:00N 38°00' E 024°05'3 4.4
2017-Jul-16 18:13N 38°01' E 024°01'312.5
2017-Jul-16 18:01N 38°01' E 024°04'1119.1
2017-Jul-16 17:27N 37°57' E 024°17'3013.6
2017-Jul-16 15:17N 37°45' E 024°51'619.5
2017-Jul-16 15:00N 37°41' E 024°56'918.4
2017-Jul-16 14:31N 37°35' E 025°04'5 9.8
2017-Jul-16 14:00N 37°32' E 025°09'611.6
2017-Jul-16 13:30N 37°29' E 025°15'4 7.2
2017-Jul-16 13:00N 37°28' E 025°20'0 0.0
2017-Jul-16 12:30N 37°28' E 025°20'0 0.0
2017-Jul-16 12:00N 37°28' E 025°20'0 0.0
2017-Jul-16 11:30N 37°28' E 025°20'0 0.0
2017-Jul-16 11:00N 37°28' E 025°20'0 0.0
2017-Jul-16 10:30N 37°28' E 025°20'0 0.0
2017-Jul-16 10:00N 37°28' E 025°20'611.7
2017-Jul-16 09:30N 37°30' E 025°13'4 7.2
2017-Jul-16 09:00N 37°32' E 025°09'917.8
2017-Jul-16 08:30N 37°37' E 025°00'1019.3
2017-Jul-16 08:00N 37°45' E 024°52'3714.8
2017-Jul-16 05:31N 37°59' E 024°09'118.8
2017-Jul-16 05:29N 37°59' E 024°08'6 0.5
2017-Jul-15 18:08N 38°01' E 024°01'214.1
2017-Jul-15 18:00N 38°01' E 024°03'1119.4
2017-Jul-15 17:26N 37°57' E 024°16'3014.0
2017-Jul-15 15:19N 37°45' E 024°51'619.7
2017-Jul-15 15:01N 37°40' E 024°56'1414.2
2017-Jul-15 14:00N 37°31' E 025°10'917.1
2017-Jul-15 13:30N 37°28' E 025°19'3 6.6
2017-Jul-15 13:01N 37°25' E 025°17'917.9
2017-Jul-15 12:31N 37°16' E 025°18'918.8
2017-Jul-15 12:01N 37°07' E 025°22'1 1.0
2017-Jul-15 11:31N 37°06' E 025°21'1019.4
2017-Jul-15 11:00N 37°16' E 025°19'1019.6
2017-Jul-15 10:30N 37°26' E 025°17'3 5.2
2017-Jul-15 10:00N 37°28' E 025°17'714.8
2017-Jul-15 09:30N 37°32' E 025°09'5 9.0
2017-Jul-15 09:01N 37°34' E 025°04'1019.5
2017-Jul-15 08:31N 37°41' E 024°56'4114.4
2017-Jul-15 05:40N 37°59' E 024°09'318.6
2017-Jul-15 05:30N 38°00' E 024°06'4 0.7
2017-Jul-15 00:03N 38°01' E 024°01'1 7.7
2017-Jul-14 23:56N 38°01' E 024°02'819.0
2017-Jul-14 23:30N 37°58' E 024°11'3319.0
2017-Jul-14 21:45N 37°42' E 024°48'519.6
2017-Jul-14 21:30N 37°39' E 024°53'1019.1
2017-Jul-14 21:00N 37°33' E 025°03'1019.4
2017-Jul-14 20:30N 37°29' E 025°14'5 9.5
2017-Jul-14 20:00N 37°28' E 025°19'2 4.4
2017-Jul-14 19:31N 37°29' E 025°17'713.9
2017-Jul-14 19:00N 37°32' E 025°09'611.9
2017-Jul-14 18:30N 37°35' E 025°03'1019.1
2017-Jul-14 17:59N 37°42' E 024°54'4013.2
2017-Jul-14 14:57N 37°60' E 024°08'6 3.8
2017-Jul-14 13:19N 38°01' E 024°01'718.4
2017-Jul-14 12:58N 37°58' E 024°08'1019.2
2017-Jul-14 12:25N 37°54' E 024°20'2518.7
2017-Jul-14 11:05N 37°41' E 024°48'119.1
2017-Jul-14 11:01N 37°41' E 024°49'1019.2
2017-Jul-14 10:30N 37°36' E 024°60'816.7
2017-Jul-14 10:00N 37°32' E 025°09'611.2
2017-Jul-14 09:30N 37°29' E 025°15'4 7.6
2017-Jul-14 09:01N 37°28' E 025°20'0 0.2
2017-Jul-14 08:31N 37°28' E 025°20'917.6
2017-Jul-14 08:00N 37°32' E 025°10'3 6.6
2017-Jul-14 07:30N 37°33' E 025°06'1019.2
2017-Jul-14 07:00N 37°38' E 024°55'4619.2
2017-Jul-14 04:35N 38°00' E 024°04'3 0.2
2017-Jul-13 18:02N 38°01' E 024°01'0 8.2
2017-Jul-13 18:00N 38°01' E 024°01'1119.0
2017-Jul-13 17:26N 37°58' E 024°14'3214.6
2017-Jul-13 15:16N 37°45' E 024°51'519.5
2017-Jul-13 15:00N 37°41' E 024°55'1019.3
2017-Jul-13 14:30N 37°35' E 025°04'5 9.8
2017-Jul-13 14:00N 37°32' E 025°09'815.3
2017-Jul-13 13:30N 37°28' E 025°18'1 1.8
2017-Jul-13 13:01N 37°28' E 025°18'918.1
2017-Jul-13 12:30N 37°19' E 025°18'1019.5
2017-Jul-13 12:00N 37°09' E 025°21'3 6.1
2017-Jul-13 11:31N 37°06' E 025°22'3 6.6
2017-Jul-13 11:01N 37°09' E 025°21'1019.8
2017-Jul-13 10:31N 37°19' E 025°19'917.4
2017-Jul-13 10:00N 37°28' E 025°20'3 6.2
2017-Jul-13 09:31N 37°29' E 025°16'612.5
2017-Jul-13 09:00N 37°32' E 025°09'815.4
2017-Jul-13 08:30N 37°36' E 025°01'1019.5
2017-Jul-13 08:00N 37°44' E 024°53'3915.7
2017-Jul-13 05:31N 37°60' E 024°08'019.5
2017-Jul-13 05:30N 37°60' E 024°07'5 0.5
2017-Jul-12 17:58N 38°01' E 024°01'4314.6
2017-Jul-12 15:03N 37°45' E 024°51'119.6
2017-Jul-12 15:00N 37°44' E 024°51'1818.5
2017-Jul-12 14:00N 37°32' E 025°09'511.0
2017-Jul-12 13:30N 37°29' E 025°15'4 7.6
2017-Jul-12 13:00N 37°28' E 025°19'816.1
2017-Jul-12 12:30N 37°20' E 025°18'1019.9
2017-Jul-12 12:00N 37°10' E 025°21'4 8.0
2017-Jul-12 11:31N 37°06' E 025°22'4 7.4
2017-Jul-12 11:01N 37°10' E 025°21'1019.4
2017-Jul-12 10:31N 37°19' E 025°18'816.8
2017-Jul-12 10:00N 37°28' E 025°19'0 0.7
2017-Jul-12 09:30N 37°28' E 025°19'917.6
2017-Jul-12 09:00N 37°32' E 025°09'612.1
2017-Jul-12 08:30N 37°35' E 025°03'1019.6
2017-Jul-12 08:00N 37°43' E 024°54'4116.2
2017-Jul-12 05:28N 37°60' E 024°07'5 0.5
2017-Jul-11 18:24N 38°01' E 024°01'717.7
2017-Jul-11 18:00N 37°59' E 024°09'3514.2
2017-Jul-11 15:29N 37°45' E 024°51'919.5
2017-Jul-11 15:00N 37°38' E 024°59'918.5
2017-Jul-11 14:30N 37°32' E 025°08'4 8.9
2017-Jul-11 14:00N 37°30' E 025°13'611.8
2017-Jul-11 13:30N 37°28' E 025°20'2 4.1
2017-Jul-11 13:00N 37°27' E 025°17'918.6
2017-Jul-11 12:30N 37°17' E 025°19'918.8
2017-Jul-11 12:00N 37°08' E 025°21'2 3.8
2017-Jul-11 11:31N 37°06' E 025°22'816.5
2017-Jul-11 11:00N 37°14' E 025°20'1019.8
2017-Jul-11 10:31N 37°24' E 025°17'4 8.2
2017-Jul-11 10:00N 37°28' E 025°19'816.9
2017-Jul-11 09:30N 37°32' E 025°09'5 9.2
2017-Jul-11 09:00N 37°34' E 025°04'1019.6
2017-Jul-11 08:29N 37°42' E 024°55'4113.8
2017-Jul-11 05:30N 37°60' E 024°08'  

Dump ship's entire track history